sensor_id;sensor_type;location;lat;lon;timestamp;pressure;altitude;pressure_sealevel;temperature;humidity
23164;BME280;31429;42.674;23.350;2023-01-26T00:00:37;95267.06;;;3.22;100.00
23164;BME280;31429;42.674;23.350;2023-01-26T00:01:38;95255.22;;;3.52;100.00
23164;BME280;31429;42.674;23.350;2023-01-26T00:02:38;95258.69;;;2.60;100.00
23164;BME280;31429;42.674;23.350;2023-01-26T00:03:39;95261.19;;;2.29;100.00
23164;BME280;31429;42.674;23.350;2023-01-26T00:04:40;95269.50;;;2.01;100.00
23164;BME280;31429;42.674;23.350;2023-01-26T00:05:41;95276.28;;;2.22;100.00
23164;BME280;31429;42.674;23.350;2023-01-26T00:06:41;95263.72;;;2.95;100.00
23164;BME280;31429;42.674;23.350;2023-01-26T00:07:42;95272.09;;;3.24;100.00
23164;BME280;31429;42.674;23.350;2023-01-26T00:08:46;95261.88;;;3.68;100.00
23164;BME280;31429;42.674;23.350;2023-01-26T00:09:47;95272.88;;;3.53;100.00
23164;BME280;31429;42.674;23.350;2023-01-26T00:10:47;95270.31;;;3.71;100.00
23164;BME280;31429;42.674;23.350;2023-01-26T00:11:51;95263.56;;;3.67;100.00
23164;BME280;31429;42.674;23.350;2023-01-26T00:12:53;95260.13;;;3.83;100.00
23164;BME280;31429;42.674;23.350;2023-01-26T00:13:54;95253.41;;;3.78;100.00
23164;BME280;31429;42.674;23.350;2023-01-26T00:14:55;95267.00;;;3.49;100.00
23164;BME280;31429;42.674;23.350;2023-01-26T00:15:55;95262.88;;;3.02;100.00
23164;BME280;31429;42.674;23.350;2023-01-26T00:16:56;95280.53;;;2.73;100.00
23164;BME280;31429;42.674;23.350;2023-01-26T00:17:57;95276.31;;;2.51;100.00
23164;BME280;31429;42.674;23.350;2023-01-26T00:18:58;95278.81;;;2.39;100.00
23164;BME280;31429;42.674;23.350;2023-01-26T00:19:59;95281.41;;;2.63;100.00
23164;BME280;31429;42.674;23.350;2023-01-26T00:21:01;95271.28;;;2.40;100.00
23164;BME280;31429;42.674;23.350;2023-01-26T00:22:01;95282.25;;;2.71;100.00
23164;BME280;31429;42.674;23.350;2023-01-26T00:23:02;95273.78;;;3.31;100.00
23164;BME280;31429;42.674;23.350;2023-01-26T00:24:03;95260.31;;;3.29;100.00
23164;BME280;31429;42.674;23.350;2023-01-26T00:25:04;95272.09;;;3.33;100.00
23164;BME280;31429;42.674;23.350;2023-01-26T00:26:05;95275.47;;;3.32;100.00
23164;BME280;31429;42.674;23.350;2023-01-26T00:27:06;95277.16;;;3.07;100.00
23164;BME280;31429;42.674;23.350;2023-01-26T00:28:08;95279.69;;;3.22;100.00
23164;BME280;31429;42.674;23.350;2023-01-26T00:29:09;95278.81;;;3.38;100.00
23164;BME280;31429;42.674;23.350;2023-01-26T00:30:10;95263.69;;;3.28;100.00
23164;BME280;31429;42.674;23.350;2023-01-26T00:31:13;95269.56;;;3.37;100.00
23164;BME280;31429;42.674;23.350;2023-01-26T00:32:13;95263.72;;;2.52;100.00
23164;BME280;31429;42.674;23.350;2023-01-26T00:33:14;95256.94;;;2.15;100.00
23164;BME280;31429;42.674;23.350;2023-01-26T00:34:15;95256.94;;;3.25;100.00
23164;BME280;31429;42.674;23.350;2023-01-26T00:35:15;95254.34;;;3.49;100.00
23164;BME280;31429;42.674;23.350;2023-01-26T00:36:16;95247.66;;;3.36;100.00
23164;BME280;31429;42.674;23.350;2023-01-26T00:37:17;95249.34;;;3.27;100.00
23164;BME280;31429;42.674;23.350;2023-01-26T00:38:18;95248.53;;;3.23;100.00
23164;BME280;31429;42.674;23.350;2023-01-26T00:39:18;95240.16;;;2.88;100.00
23164;BME280;31429;42.674;23.350;2023-01-26T00:40:19;95240.03;;;3.53;100.00
23164;BME280;31429;42.674;23.350;2023-01-26T00:41:20;95237.50;;;3.56;100.00
23164;BME280;31429;42.674;23.350;2023-01-26T00:42:39;95249.44;;;2.77;100.00
23164;BME280;31429;42.674;23.350;2023-01-26T00:43:41;95239.97;;;3.73;100.00
23164;BME280;31429;42.674;23.350;2023-01-26T00:44:42;95230.47;;;4.17;100.00
23164;BME280;31429;42.674;23.350;2023-01-26T00:45:42;95229.75;;;3.92;100.00
23164;BME280;31429;42.674;23.350;2023-01-26T00:46:43;95240.00;;;3.65;100.00
23164;BME280;31429;42.674;23.350;2023-01-26T00:47:44;95244.31;;;3.22;100.00
23164;BME280;31429;42.674;23.350;2023-01-26T00:48:44;95238.47;;;2.73;100.00
23164;BME280;31429;42.674;23.350;2023-01-26T00:49:45;95234.25;;;2.36;100.00
23164;BME280;31429;42.674;23.350;2023-01-26T00:50:45;95246.88;;;2.35;100.00
23164;BME280;31429;42.674;23.350;2023-01-26T00:51:46;95244.31;;;2.19;100.00
23164;BME280;31429;42.674;23.350;2023-01-26T00:52:47;95230.06;;;2.43;100.00
23164;BME280;31429;42.674;23.350;2023-01-26T00:53:47;95234.28;;;2.77;100.00
23164;BME280;31429;42.674;23.350;2023-01-26T00:54:48;95234.28;;;2.83;100.00
23164;BME280;31429;42.674;23.350;2023-01-26T00:55:48;95236.78;;;3.09;100.00
23164;BME280;31429;42.674;23.350;2023-01-26T00:56:49;95232.50;;;3.35;100.00
23164;BME280;31429;42.674;23.350;2023-01-26T00:57:50;95217.16;;;3.80;100.00
23164;BME280;31429;42.674;23.350;2023-01-26T00:58:52;95235.94;;;3.02;100.00
23164;BME280;31429;42.674;23.350;2023-01-26T00:59:52;95238.50;;;2.52;100.00
23164;BME280;31429;42.674;23.350;2023-01-26T01:00:53;95230.06;;;2.32;100.00
23164;BME280;31429;42.674;23.350;2023-01-26T01:01:54;95226.69;;;2.27;100.00
23164;BME280;31429;42.674;23.350;2023-01-26T01:02:55;95231.72;;;2.21;100.00
23164;BME280;31429;42.674;23.350;2023-01-26T01:03:56;95222.44;;;2.03;100.00
23164;BME280;31429;42.674;23.350;2023-01-26T01:04:57;95225.78;;;1.84;100.00
23164;BME280;31429;42.674;23.350;2023-01-26T01:05:57;95219.97;;;2.33;100.00
23164;BME280;31429;42.674;23.350;2023-01-26T01:06:58;95211.53;;;2.06;100.00
23164;BME280;31429;42.674;23.350;2023-01-26T01:07:58;95213.25;;;2.45;100.00
23164;BME280;31429;42.674;23.350;2023-01-26T01:08:59;95216.59;;;2.81;100.00
23164;BME280;31429;42.674;23.350;2023-01-26T01:10:00;95212.25;;;3.48;100.00
23164;BME280;31429;42.674;23.350;2023-01-26T01:11:05;95209.03;;;2.65;100.00
23164;BME280;31429;42.674;23.350;2023-01-26T01:12:06;95219.13;;;2.56;100.00
23164;BME280;31429;42.674;23.350;2023-01-26T01:13:07;95214.94;;;2.38;100.00
23164;BME280;31429;42.674;23.350;2023-01-26T01:14:09;95221.66;;;2.38;100.00
23164;BME280;31429;42.674;23.350;2023-01-26T01:15:10;95219.03;;;3.24;100.00
23164;BME280;31429;42.674;23.350;2023-01-26T01:16:12;95226.72;;;2.41;100.00
23164;BME280;31429;42.674;23.350;2023-01-26T01:17:14;95226.69;;;2.21;100.00
23164;BME280;31429;42.674;23.350;2023-01-26T01:18:14;95221.66;;;2.74;100.00
23164;BME280;31429;42.674;23.350;2023-01-26T01:19:16;95214.09;;;2.72;100.00
23164;BME280;31429;42.674;23.350;2023-01-26T01:20:17;95206.53;;;2.44;100.00
23164;BME280;31429;42.674;23.350;2023-01-26T01:21:18;95203.16;;;2.43;100.00
23164;BME280;31429;42.674;23.350;2023-01-26T01:22:19;95205.66;;;2.67;100.00
23164;BME280;31429;42.674;23.350;2023-01-26T01:23:19;95213.22;;;2.04;100.00
23164;BME280;31429;42.674;23.350;2023-01-26T01:24:20;95205.69;;;2.57;100.00
23164;BME280;31429;42.674;23.350;2023-01-26T01:25:20;95209.03;;;2.83;100.00
23164;BME280;31429;42.674;23.350;2023-01-26T01:26:21;95207.34;;;2.15;100.00
23164;BME280;31429;42.674;23.350;2023-01-26T01:27:22;95209.03;;;2.68;100.00
23164;BME280;31429;42.674;23.350;2023-01-26T01:28:23;95215.72;;;3.14;100.00
23164;BME280;31429;42.674;23.350;2023-01-26T01:29:25;95219.97;;;2.77;100.00
23164;BME280;31429;42.674;23.350;2023-01-26T01:30:26;95220.84;;;2.52;100.00
23164;BME280;31429;42.674;23.350;2023-01-26T01:31:26;95210.72;;;2.36;100.00
23164;BME280;31429;42.674;23.350;2023-01-26T01:32:28;95221.66;;;2.83;100.00
23164;BME280;31429;42.674;23.350;2023-01-26T01:33:29;95209.88;;;2.71;100.00
23164;BME280;31429;42.674;23.350;2023-01-26T01:34:30;95209.91;;;2.55;100.00
23164;BME280;31429;42.674;23.350;2023-01-26T01:35:30;95208.22;;;2.43;100.00
23164;BME280;31429;42.674;23.350;2023-01-26T01:36:33;95203.13;;;2.25;100.00
23164;BME280;31429;42.674;23.350;2023-01-26T01:37:34;95206.44;;;1.89;100.00
23164;BME280;31429;42.674;23.350;2023-01-26T01:38:36;95204.75;;;1.91;100.00
23164;BME280;31429;42.674;23.350;2023-01-26T01:39:36;95205.66;;;2.36;100.00
23164;BME280;31429;42.674;23.350;2023-01-26T01:40:41;95205.69;;;2.33;100.00
23164;BME280;31429;42.674;23.350;2023-01-26T01:41:42;95208.19;;;2.57;100.00
23164;BME280;31429;42.674;23.350;2023-01-26T01:42:46;95203.13;;;2.04;100.00
23164;BME280;31429;42.674;23.350;2023-01-26T01:43:47;95211.41;;;1.60;100.00
23164;BME280;31429;42.674;23.350;2023-01-26T01:46:29;95210.66;;;1.95;100.00
23164;BME280;31429;42.674;23.350;2023-01-26T01:47:31;95212.31;;;1.85;100.00
23164;BME280;31429;42.674;23.350;2023-01-26T01:48:36;95209.00;;;1.95;100.00
23164;BME280;31429;42.674;23.350;2023-01-26T01:49:42;95203.88;;;1.71;100.00
23164;BME280;31429;42.674;23.350;2023-01-26T01:50:45;95204.81;;;2.47;100.00
23164;BME280;31429;42.674;23.350;2023-01-26T01:51:51;95186.88;;;3.67;100.00
23164;BME280;31429;42.674;23.350;2023-01-26T01:52:54;95202.19;;;3.36;100.00
23164;BME280;31429;42.674;23.350;2023-01-26T01:53:57;95209.88;;;2.86;100.00
23164;BME280;31429;42.674;23.350;2023-01-26T01:55:02;95201.44;;;3.06;100.00
23164;BME280;31429;42.674;23.350;2023-01-26T01:56:09;95204.69;;;3.38;100.00
23164;BME280;31429;42.674;23.350;2023-01-26T01:57:13;95210.72;;;2.75;100.00
23164;BME280;31429;42.674;23.350;2023-01-26T01:58:15;95206.50;;;2.87;100.00
23164;BME280;31429;42.674;23.350;2023-01-26T01:59:16;95201.41;;;3.12;100.00
23164;BME280;31429;42.674;23.350;2023-01-26T02:00:22;95191.28;;;3.19;100.00
23164;BME280;31429;42.674;23.350;2023-01-26T02:01:23;95197.97;;;3.29;100.00
23164;BME280;31429;42.674;23.350;2023-01-26T02:02:25;95193.78;;;3.24;100.00
23164;BME280;31429;42.674;23.350;2023-01-26T02:03:28;95197.22;;;3.03;100.00
23164;BME280;31429;42.674;23.350;2023-01-26T02:04:29;95194.75;;;2.58;100.00
23164;BME280;31429;42.674;23.350;2023-01-26T02:05:32;95198.13;;;2.43;100.00
23164;BME280;31429;42.674;23.350;2023-01-26T02:06:38;95196.38;;;2.98;100.00
23164;BME280;31429;42.674;23.350;2023-01-26T02:07:40;95199.78;;;2.70;100.00
23164;BME280;31429;42.674;23.350;2023-01-26T02:08:44;95190.41;;;3.37;100.00
23164;BME280;31429;42.674;23.350;2023-01-26T02:09:45;95194.69;;;2.99;100.00
23164;BME280;31429;42.674;23.350;2023-01-26T02:11:07;95189.63;;;3.05;100.00
23164;BME280;31429;42.674;23.350;2023-01-26T02:12:12;95190.53;;;2.78;100.00
23164;BME280;31429;42.674;23.350;2023-01-26T02:13:15;95191.38;;;2.53;100.00
23164;BME280;31429;42.674;23.350;2023-01-26T02:14:16;95182.97;;;2.31;100.00
23164;BME280;31429;42.674;23.350;2023-01-26T02:15:17;95188.00;;;2.85;100.00
23164;BME280;31429;42.674;23.350;2023-01-26T02:16:18;95175.31;;;3.08;100.00
23164;BME280;31429;42.674;23.350;2023-01-26T02:17:19;95177.00;;;3.09;100.00
23164;BME280;31429;42.674;23.350;2023-01-26T02:18:21;95180.25;;;3.38;100.00
23164;BME280;31429;42.674;23.350;2023-01-26T02:19:26;95183.78;;;2.95;100.00
23164;BME280;31429;42.674;23.350;2023-01-26T02:20:37;95182.06;;;1.91;100.00
23164;BME280;31429;42.674;23.350;2023-01-26T02:21:41;95181.28;;;2.62;100.00
23164;BME280;31429;42.674;23.350;2023-01-26T02:22:48;95162.66;;;3.16;100.00
23164;BME280;31429;42.674;23.350;2023-01-26T02:24:06;95168.63;;;2.81;100.00
23164;BME280;31429;42.674;23.350;2023-01-26T02:25:12;95154.31;;;2.91;100.00
23164;BME280;31429;42.674;23.350;2023-01-26T02:26:19;95162.78;;;2.46;100.00
23164;BME280;31429;42.674;23.350;2023-01-26T02:27:20;95152.63;;;2.95;100.00
23164;BME280;31429;42.674;23.350;2023-01-26T02:28:24;95156.06;;;2.54;100.00
23164;BME280;31429;42.674;23.350;2023-01-26T02:29:26;95152.66;;;2.79;100.00
23164;BME280;31429;42.674;23.350;2023-01-26T02:30:27;95159.34;;;2.96;100.00
23164;BME280;31429;42.674;23.350;2023-01-26T02:31:29;95144.28;;;2.59;100.00
23164;BME280;31429;42.674;23.350;2023-01-26T02:32:30;95143.19;;;3.45;100.00
23164;BME280;31429;42.674;23.350;2023-01-26T02:33:31;95141.53;;;3.35;100.00
23164;BME280;31429;42.674;23.350;2023-01-26T02:34:32;95152.59;;;2.99;100.00
23164;BME280;31429;42.674;23.350;2023-01-26T02:35:32;95145.03;;;2.96;100.00
23164;BME280;31429;42.674;23.350;2023-01-26T02:36:33;95132.38;;;3.14;100.00
23164;BME280;31429;42.674;23.350;2023-01-26T02:37:34;95143.31;;;3.10;100.00
23164;BME280;31429;42.674;23.350;2023-01-26T02:38:38;95138.19;;;3.27;100.00
23164;BME280;31429;42.674;23.350;2023-01-26T02:39:44;95132.00;;;3.87;100.00
23164;BME280;31429;42.674;23.350;2023-01-26T02:40:53;95138.06;;;3.56;100.00
23164;BME280;31429;42.674;23.350;2023-01-26T02:41:55;95143.41;;;2.83;100.00
23164;BME280;31429;42.674;23.350;2023-01-26T02:43:15;95141.72;;;2.80;100.00
23164;BME280;31429;42.674;23.350;2023-01-26T02:44:16;95139.22;;;2.56;100.00
23164;BME280;31429;42.674;23.350;2023-01-26T02:45:17;95143.44;;;2.69;100.00
23164;BME280;31429;42.674;23.350;2023-01-26T02:46:17;95145.16;;;2.10;100.00
23164;BME280;31429;42.674;23.350;2023-01-26T02:47:18;95145.94;;;1.72;100.00
23164;BME280;31429;42.674;23.350;2023-01-26T02:48:19;95135.03;;;2.45;100.00
23164;BME280;31429;42.674;23.350;2023-01-26T02:49:38;95134.16;;;2.70;100.00
23164;BME280;31429;42.674;23.350;2023-01-26T02:50:51;95129.09;;;2.86;100.00
23164;BME280;31429;42.674;23.350;2023-01-26T02:51:52;95133.34;;;2.56;100.00
23164;BME280;31429;42.674;23.350;2023-01-26T02:52:52;95135.03;;;2.51;100.00
23164;BME280;31429;42.674;23.350;2023-01-26T02:53:53;95125.72;;;2.92;100.00
23164;BME280;31429;42.674;23.350;2023-01-26T02:54:54;95124.97;;;2.33;100.00
23164;BME280;31429;42.674;23.350;2023-01-26T02:56:13;95128.34;;;2.24;100.00
23164;BME280;31429;42.674;23.350;2023-01-26T02:57:15;95122.44;;;2.43;100.00
23164;BME280;31429;42.674;23.350;2023-01-26T02:58:15;95119.84;;;2.67;100.00
23164;BME280;31429;42.674;23.350;2023-01-26T02:59:16;95125.78;;;2.66;100.00
23164;BME280;31429;42.674;23.350;2023-01-26T03:00:18;95121.59;;;2.52;100.00
23164;BME280;31429;42.674;23.350;2023-01-26T03:01:19;95118.25;;;2.04;100.00
23164;BME280;31429;42.674;23.350;2023-01-26T03:02:20;95112.31;;;1.93;100.00
23164;BME280;31429;42.674;23.350;2023-01-26T03:03:23;95119.00;;;1.62;100.00
23164;BME280;31429;42.674;23.350;2023-01-26T03:04:24;95116.53;;;1.94;100.00
23164;BME280;31429;42.674;23.350;2023-01-26T03:05:26;95114.88;;;1.92;100.00
23164;BME280;31429;42.674;23.350;2023-01-26T03:06:26;95114.00;;;2.21;100.00
23164;BME280;31429;42.674;23.350;2023-01-26T03:07:27;95119.03;;;2.53;100.00
23164;BME280;31429;42.674;23.350;2023-01-26T03:08:28;95103.72;;;3.12;100.00
23164;BME280;31429;42.674;23.350;2023-01-26T03:09:29;95109.72;;;2.84;100.00
23164;BME280;31429;42.674;23.350;2023-01-26T03:10:29;95118.22;;;2.44;100.00
23164;BME280;31429;42.674;23.350;2023-01-26T03:11:30;95114.88;;;2.29;100.00
23164;BME280;31429;42.674;23.350;2023-01-26T03:12:42;95124.09;;;2.30;100.00
23164;BME280;31429;42.674;23.350;2023-01-26T03:13:43;95124.09;;;2.40;100.00
23164;BME280;31429;42.674;23.350;2023-01-26T03:14:44;95114.81;;;2.72;100.00
23164;BME280;31429;42.674;23.350;2023-01-26T03:15:44;95114.03;;;1.94;100.00
23164;BME280;31429;42.674;23.350;2023-01-26T03:16:54;95101.41;;;2.33;100.00
23164;BME280;31429;42.674;23.350;2023-01-26T03:18:02;95097.91;;;2.94;100.00
23164;BME280;31429;42.674;23.350;2023-01-26T03:19:35;95098.06;;;2.16;100.00
23164;BME280;31429;42.674;23.350;2023-01-26T03:20:55;95103.91;;;1.79;100.00
23164;BME280;31429;42.674;23.350;2023-01-26T03:22:14;95097.22;;;2.25;100.00
23164;BME280;31429;42.674;23.350;2023-01-26T03:23:33;95097.19;;;2.36;100.00
23164;BME280;31429;42.674;23.350;2023-01-26T03:24:52;95098.88;;;2.30;100.00
23164;BME280;31429;42.674;23.350;2023-01-26T03:26:12;95081.94;;;2.88;100.00
23164;BME280;31429;42.674;23.350;2023-01-26T03:27:36;95085.34;;;2.77;100.00
23164;BME280;31429;42.674;23.350;2023-01-26T03:28:39;95081.13;;;2.86;100.00
23164;BME280;31429;42.674;23.350;2023-01-26T03:29:39;95075.09;;;3.19;100.00
23164;BME280;31429;42.674;23.350;2023-01-26T03:30:40;95072.28;;;3.66;100.00
23164;BME280;31429;42.674;23.350;2023-01-26T03:31:40;95070.44;;;3.94;100.00
23164;BME280;31429;42.674;23.350;2023-01-26T03:32:41;95073.28;;;3.44;100.00
23164;BME280;31429;42.674;23.350;2023-01-26T03:33:42;95083.59;;;3.00;100.00
23164;BME280;31429;42.674;23.350;2023-01-26T03:34:43;95081.03;;;3.11;100.00
23164;BME280;31429;42.674;23.350;2023-01-26T03:35:44;95090.44;;;2.59;100.00
23164;BME280;31429;42.674;23.350;2023-01-26T03:36:45;95084.59;;;2.40;100.00
23164;BME280;31429;42.674;23.350;2023-01-26T03:37:45;95076.97;;;2.63;100.00
23164;BME280;31429;42.674;23.350;2023-01-26T03:38:53;95076.16;;;2.44;100.00
23164;BME280;31429;42.674;23.350;2023-01-26T03:39:54;95076.00;;;2.99;100.00
23164;BME280;31429;42.674;23.350;2023-01-26T03:41:13;95080.38;;;2.48;100.00
23164;BME280;31429;42.674;23.350;2023-01-26T03:42:33;95083.75;;;2.24;100.00
23164;BME280;31429;42.674;23.350;2023-01-26T03:43:54;95082.88;;;2.57;100.00
23164;BME280;31429;42.674;23.350;2023-01-26T03:45:13;95083.78;;;2.18;100.00
23164;BME280;31429;42.674;23.350;2023-01-26T03:46:32;95075.31;;;2.45;100.00
23164;BME280;31429;42.674;23.350;2023-01-26T03:47:51;95075.38;;;2.24;100.00
23164;BME280;31429;42.674;23.350;2023-01-26T03:49:10;95072.81;;;2.41;100.00
23164;BME280;31429;42.674;23.350;2023-01-26T03:50:29;95064.31;;;2.70;100.00
23164;BME280;31429;42.674;23.350;2023-01-26T03:51:48;95062.59;;;2.89;100.00
23164;BME280;31429;42.674;23.350;2023-01-26T03:53:12;95069.25;;;3.08;100.00
23164;BME280;31429;42.674;23.350;2023-01-26T03:54:32;95059.28;;;2.70;100.00
23164;BME280;31429;42.674;23.350;2023-01-26T03:55:51;95060.94;;;2.76;100.00
23164;BME280;31429;42.674;23.350;2023-01-26T03:57:10;95064.47;;;2.01;100.00
23164;BME280;31429;42.674;23.350;2023-01-26T03:58:10;95055.81;;;2.92;100.00
23164;BME280;31429;42.674;23.350;2023-01-26T03:59:12;95049.06;;;3.02;100.00
23164;BME280;31429;42.674;23.350;2023-01-26T04:00:14;95045.13;;;3.97;100.00
23164;BME280;31429;42.674;23.350;2023-01-26T04:01:15;95044.59;;;3.51;100.00
23164;BME280;31429;42.674;23.350;2023-01-26T04:02:25;95049.13;;;2.87;100.00
23164;BME280;31429;42.674;23.350;2023-01-26T04:03:46;95054.16;;;2.95;100.00
23164;BME280;31429;42.674;23.350;2023-01-26T04:05:06;95061.00;;;2.64;100.00
23164;BME280;31429;42.674;23.350;2023-01-26T04:06:25;95050.09;;;2.50;100.00
23164;BME280;31429;42.674;23.350;2023-01-26T04:07:44;95049.66;;;3.46;100.00
23164;BME280;31429;42.674;23.350;2023-01-26T04:09:03;95038.69;;;3.51;100.00
23164;BME280;31429;42.674;23.350;2023-01-26T04:10:05;95044.44;;;3.72;100.00
23164;BME280;31429;42.674;23.350;2023-01-26T04:11:05;95037.00;;;3.53;100.00
23164;BME280;31429;42.674;23.350;2023-01-26T04:12:06;95040.69;;;2.91;100.00
23164;BME280;31429;42.674;23.350;2023-01-26T04:13:09;95043.31;;;2.65;100.00
23164;BME280;31429;42.674;23.350;2023-01-26T04:14:29;95049.94;;;2.90;100.00
23164;BME280;31429;42.674;23.350;2023-01-26T04:15:49;95038.31;;;2.49;100.00
23164;BME280;31429;42.674;23.350;2023-01-26T04:17:08;95038.19;;;2.91;100.00
23164;BME280;31429;42.674;23.350;2023-01-26T04:18:27;95023.91;;;2.79;100.00
23164;BME280;31429;42.674;23.350;2023-01-26T04:19:46;95034.13;;;2.40;100.00
23164;BME280;31429;42.674;23.350;2023-01-26T04:21:06;95029.72;;;3.03;100.00
23164;BME280;31429;42.674;23.350;2023-01-26T04:22:25;95025.13;;;3.61;100.00
23164;BME280;31429;42.674;23.350;2023-01-26T04:23:25;95021.81;;;3.56;100.00
23164;BME280;31429;42.674;23.350;2023-01-26T04:24:26;95025.63;;;2.77;100.00
23164;BME280;31429;42.674;23.350;2023-01-26T04:25:27;95018.84;;;2.84;100.00
23164;BME280;31429;42.674;23.350;2023-01-26T04:26:29;95015.13;;;3.48;100.00
23164;BME280;31429;42.674;23.350;2023-01-26T04:27:36;95017.81;;;3.26;100.00
23164;BME280;31429;42.674;23.350;2023-01-26T04:28:36;95012.91;;;2.97;100.00
23164;BME280;31429;42.674;23.350;2023-01-26T04:29:39;95009.94;;;3.68;100.00
23164;BME280;31429;42.674;23.350;2023-01-26T04:30:39;95003.53;;;4.28;100.00
23164;BME280;31429;42.674;23.350;2023-01-26T04:31:41;94996.75;;;4.29;100.00
23164;BME280;31429;42.674;23.350;2023-01-26T04:32:42;95006.94;;;3.07;100.00
23164;BME280;31429;42.674;23.350;2023-01-26T04:33:43;95014.97;;;3.70;100.00
23164;BME280;31429;42.674;23.350;2023-01-26T04:34:43;95012.63;;;3.48;100.00
23164;BME280;31429;42.674;23.350;2023-01-26T04:35:44;95005.16;;;3.24;100.00
23164;BME280;31429;42.674;23.350;2023-01-26T04:36:44;95019.69;;;2.84;100.00
23164;BME280;31429;42.674;23.350;2023-01-26T04:37:46;95007.97;;;2.67;100.00
23164;BME280;31429;42.674;23.350;2023-01-26T04:38:47;95014.63;;;2.87;100.00
23164;BME280;31429;42.674;23.350;2023-01-26T04:39:48;95012.97;;;2.82;100.00
23164;BME280;31429;42.674;23.350;2023-01-26T04:40:52;95010.44;;;2.83;100.00
23164;BME280;31429;42.674;23.350;2023-01-26T04:41:52;95013.00;;;2.73;100.00
23164;BME280;31429;42.674;23.350;2023-01-26T04:42:53;95022.34;;;2.36;100.00
23164;BME280;31429;42.674;23.350;2023-01-26T04:43:54;95017.38;;;2.03;100.00
23164;BME280;31429;42.674;23.350;2023-01-26T04:44:56;95014.81;;;2.22;100.00
23164;BME280;31429;42.674;23.350;2023-01-26T04:45:58;95014.72;;;2.69;100.00
23164;BME280;31429;42.674;23.350;2023-01-26T04:46:59;95018.22;;;1.99;100.00
23164;BME280;31429;42.674;23.350;2023-01-26T04:47:59;95021.59;;;1.75;100.00
23164;BME280;31429;42.674;23.350;2023-01-26T04:49:00;95016.50;;;2.19;100.00
23164;BME280;31429;42.674;23.350;2023-01-26T04:50:01;95010.53;;;2.50;100.00
23164;BME280;31429;42.674;23.350;2023-01-26T04:51:03;95015.69;;;2.18;100.00
23164;BME280;31429;42.674;23.350;2023-01-26T04:52:04;95012.25;;;2.50;100.00
23164;BME280;31429;42.674;23.350;2023-01-26T04:53:05;95009.53;;;3.00;100.00
23164;BME280;31429;42.674;23.350;2023-01-26T04:54:05;95012.94;;;2.85;100.00
23164;BME280;31429;42.674;23.350;2023-01-26T04:55:07;95012.50;;;3.62;100.00
23164;BME280;31429;42.674;23.350;2023-01-26T04:56:13;95007.22;;;3.89;100.00
23164;BME280;31429;42.674;23.350;2023-01-26T04:57:17;95008.22;;;3.70;100.00
23164;BME280;31429;42.674;23.350;2023-01-26T04:58:22;95014.19;;;3.62;100.00
23164;BME280;31429;42.674;23.350;2023-01-26T04:59:23;95012.69;;;3.33;100.00
23164;BME280;31429;42.674;23.350;2023-01-26T05:00:25;95010.94;;;3.49;100.00
23164;BME280;31429;42.674;23.350;2023-01-26T05:01:26;95015.78;;;3.73;100.00
23164;BME280;31429;42.674;23.350;2023-01-26T05:02:26;95014.09;;;3.77;100.00
23164;BME280;31429;42.674;23.350;2023-01-26T05:03:27;95016.81;;;3.48;100.00
23164;BME280;31429;42.674;23.350;2023-01-26T05:04:28;95017.59;;;3.56;100.00
23164;BME280;31429;42.674;23.350;2023-01-26T05:05:28;95021.69;;;3.77;100.00
23164;BME280;31429;42.674;23.350;2023-01-26T05:06:29;95005.34;;;4.13;100.00
23164;BME280;31429;42.674;23.350;2023-01-26T05:07:30;95009.75;;;3.94;100.00
23164;BME280;31429;42.674;23.350;2023-01-26T05:08:31;95019.38;;;3.45;100.00
23164;BME280;31429;42.674;23.350;2023-01-26T05:09:32;95013.41;;;3.57;100.00
23164;BME280;31429;42.674;23.350;2023-01-26T05:10:32;95012.41;;;3.77;100.00
23164;BME280;31429;42.674;23.350;2023-01-26T05:11:33;95011.16;;;3.07;100.00
23164;BME280;31429;42.674;23.350;2023-01-26T05:12:33;95010.44;;;2.86;100.00
23164;BME280;31429;42.674;23.350;2023-01-26T05:13:34;95016.47;;;2.43;100.00
23164;BME280;31429;42.674;23.350;2023-01-26T05:14:35;95016.50;;;2.29;100.00
23164;BME280;31429;42.674;23.350;2023-01-26T05:15:37;95014.78;;;2.42;100.00
23164;BME280;31429;42.674;23.350;2023-01-26T05:16:38;95020.72;;;2.17;100.00
23164;BME280;31429;42.674;23.350;2023-01-26T05:17:38;95011.47;;;2.26;100.00
23164;BME280;31429;42.674;23.350;2023-01-26T05:18:39;95007.78;;;3.11;100.00
23164;BME280;31429;42.674;23.350;2023-01-26T05:19:40;95005.78;;;3.63;100.00
23164;BME280;31429;42.674;23.350;2023-01-26T05:20:40;94996.66;;;3.40;100.00
23164;BME280;31429;42.674;23.350;2023-01-26T05:21:41;95004.25;;;3.40;100.00
23164;BME280;31429;42.674;23.350;2023-01-26T05:22:42;95000.22;;;3.09;100.00
23164;BME280;31429;42.674;23.350;2023-01-26T05:23:42;95017.28;;;2.51;100.00
23164;BME280;31429;42.674;23.350;2023-01-26T05:24:43;95002.91;;;2.73;100.00
23164;BME280;31429;42.674;23.350;2023-01-26T05:25:44;95010.53;;;2.62;100.00
23164;BME280;31429;42.674;23.350;2023-01-26T05:26:44;95019.91;;;1.74;100.00
23164;BME280;31429;42.674;23.350;2023-01-26T05:27:45;95013.19;;;1.71;100.00
23164;BME280;31429;42.674;23.350;2023-01-26T05:28:46;95015.72;;;1.55;100.00
23164;BME280;31429;42.674;23.350;2023-01-26T05:29:47;95010.69;;;1.71;100.00
23164;BME280;31429;42.674;23.350;2023-01-26T05:30:49;94991.22;;;2.45;100.00
23164;BME280;31429;42.674;23.350;2023-01-26T05:31:49;95001.28;;;2.54;100.00
23164;BME280;31429;42.674;23.350;2023-01-26T05:32:50;95005.63;;;2.03;100.00
23164;BME280;31429;42.674;23.350;2023-01-26T05:33:51;95009.81;;;2.10;100.00
23164;BME280;31429;42.674;23.350;2023-01-26T05:34:52;95006.22;;;2.84;100.00
23164;BME280;31429;42.674;23.350;2023-01-26T05:35:52;95006.38;;;2.49;100.00